Time;durP1;ratioP1;P1;durP2;ratioP2;P2;SDS_P1;SDS_P2;PMS_P1;PMS_P2;Temp;Humidity;BMP_temperature;BMP_pressure;BME280_temperature;BME280_humidity;BME280_pressure;Samples;Min_cycle;Max_cycle;Signal;HPM_P1;HPM_P2
2021/04/19 00:01:48;;;;;;;17.15;13.60;;;;;;;12.07;63.52;99853.16;4410710;32;34682;-87
2021/04/19 00:04:16;;;;;;;14.73;13.00;;;;;;;12.16;63.25;99850.50;4411106;32;33828;-87
2021/04/19 00:06:44;;;;;;;18.42;13.43;;;;;;;12.17;63.26;99841.81;4410649;32;34031;-86
2021/04/19 00:09:11;;;;;;;16.98;13.55;;;;;;;12.21;63.25;99849.59;4397684;32;33525;-86
2021/04/19 00:11:38;;;;;;;18.27;14.82;;;;;;;12.10;63.58;99842.69;4410287;32;33319;-87
2021/04/19 00:14:06;;;;;;;19.80;15.40;;;;;;;11.96;64.10;99844.50;4410436;32;33724;-86
2021/04/19 00:16:33;;;;;;;17.62;14.00;;;;;;;12.17;63.53;99837.44;4410539;32;35000;-86
2021/04/19 00:19:02;;;;;;;19.17;15.85;;;;;;;12.13;63.59;99837.47;4397758;32;34474;-87
2021/04/19 00:21:31;;;;;;;19.67;15.35;;;;;;;11.90;64.34;99836.75;4410282;32;34263;-87
2021/04/19 00:23:58;;;;;;;20.88;16.12;;;;;;;11.95;64.32;99833.25;4410297;32;34769;-86
2021/04/19 00:26:26;;;;;;;22.77;16.87;;;;;;;11.97;64.23;99825.41;4410224;32;33965;-86
2021/04/19 00:28:53;;;;;;;20.40;16.70;;;;;;;12.18;63.58;99833.97;4410794;32;33995;-86
2021/04/19 00:31:20;;;;;;;20.20;16.83;;;;;;;12.08;63.89;99821.00;4397834;32;34226;-86
2021/04/19 00:33:48;;;;;;;22.27;17.37;;;;;;;12.15;63.64;99827.91;4410302;32;33758;-86
2021/04/19 00:36:16;;;;;;;22.90;16.98;;;;;;;12.00;64.02;99830.63;4397576;32;35108;-86
2021/04/19 00:38:43;;;;;;;22.10;17.02;;;;;;;12.04;64.05;99830.59;4409987;32;34376;-86
2021/04/19 00:41:11;;;;;;;22.60;17.80;;;;;;;12.04;63.87;99830.59;4397498;32;33064;-86
2021/04/19 00:43:38;;;;;;;22.40;16.90;;;;;;;12.08;63.85;99828.81;4410527;32;33580;-86
2021/04/19 00:46:06;;;;;;;23.00;17.40;;;;;;;12.09;63.74;99821.00;4410487;32;35260;-86
2021/04/19 00:48:35;;;;;;;22.35;17.85;;;;;;;12.11;63.51;99828.81;4409886;32;33303;-86
2021/04/19 00:51:07;;;;;;;21.23;17.58;;;;;;;11.97;63.90;99821.06;4410239;32;34085;-86
2021/04/19 00:53:35;;;;;;;19.92;16.40;;;;;;;11.98;64.00;99822.78;4409888;32;33871;-86
2021/04/19 00:56:03;;;;;;;21.17;16.42;;;;;;;12.05;63.58;99823.63;4409987;32;33987;-86
2021/04/19 00:58:36;;;;;;;20.98;17.05;;;;;;;12.13;63.36;99821.84;4410056;32;34013;-85
2021/04/19 01:01:05;;;;;;;24.37;17.23;;;;;;;12.05;63.65;99815.81;4397358;32;33041;-86
2021/04/19 01:03:32;;;;;;;23.75;18.17;;;;;;;12.03;63.86;99820.16;4409778;32;34342;-86
2021/04/19 01:06:00;;;;;;;24.02;17.55;;;;;;;11.94;64.12;99821.06;4422430;32;34370;-86
2021/04/19 01:08:28;;;;;;;20.58;17.23;;;;;;;12.01;64.04;99816.69;4410052;32;33453;-86
2021/04/19 01:10:57;;;;;;;21.67;17.33;;;;;;;11.88;64.33;99820.25;4410332;32;32696;-86
2021/04/19 01:13:24;;;;;;;23.92;17.35;;;;;;;12.09;63.73;99814.91;4422507;32;34433;-86
2021/04/19 01:15:52;;;;;;;21.67;17.50;;;;;;;11.92;64.09;99815.00;4422423;32;34028;-86
2021/04/19 01:18:19;;;;;;;20.15;15.75;;;;;;;11.97;64.12;99812.38;4409584;32;33384;-86
2021/04/19 01:20:48;;;;;;;21.00;16.40;;;;;;;11.97;63.87;99815.84;4409614;32;33332;-86
2021/04/19 01:23:17;;;;;;;20.10;16.35;;;;;;;11.90;64.05;99810.69;4409547;32;34564;-86
2021/04/19 01:25:45;;;;;;;22.37;17.08;;;;;;;11.88;64.09;99810.69;4409605;32;34355;-86
2021/04/19 01:28:16;;;;;;;20.10;16.12;;;;;;;11.86;63.94;99816.78;4396913;32;33717;-86
2021/04/19 01:30:46;;;;;;;19.42;16.75;;;;;;;11.77;64.54;99819.41;4409923;32;33486;-86
2021/04/19 01:33:14;;;;;;;23.02;17.27;;;;;;;11.95;63.99;99811.53;4397052;32;33451;-86
2021/04/19 01:35:42;;;;;;;21.67;17.05;;;;;;;11.94;63.84;99815.88;4409384;32;33882;-86
2021/04/19 01:38:13;;;;;;;20.95;17.12;;;;;;;11.82;64.32;99804.63;4396936;32;34359;-85
2021/04/19 01:40:42;;;;;;;20.73;16.98;;;;;;;11.87;64.09;99808.09;4397164;32;33025;-85
2021/04/19 01:43:10;;;;;;;22.70;16.73;;;;;;;12.00;63.65;99813.25;4409470;32;34483;-85
2021/04/19 01:45:39;;;;;;;19.52;16.40;;;;;;;11.98;63.69;99807.12;4409748;32;35738;-85
2021/04/19 01:48:07;;;;;;;21.08;17.48;;;;;;;11.97;63.98;99810.63;4396984;32;34291;-86
2021/04/19 01:50:36;;;;;;;22.62;17.92;;;;;;;12.17;63.40;99807.94;4396810;32;33183;-86
2021/04/19 01:53:03;;;;;;;22.30;17.95;;;;;;;12.04;63.70;99807.12;4409259;32;34118;-86
2021/04/19 01:55:33;;;;;;;23.08;17.80;;;;;;;12.18;63.38;99802.69;4409364;32;34032;-85
2021/04/19 01:58:04;;;;;;;23.12;18.50;;;;;;;12.05;63.73;99811.44;4409350;32;33902;-86
2021/04/19 02:00:36;;;;;;;19.67;16.70;;;;;;;12.01;63.83;99806.25;4409126;32;34453;-86
2021/04/19 02:03:11;;;;;;;23.87;19.25;;;;;;;12.01;63.87;99808.88;4396599;32;33207;-86
2021/04/19 02:05:59;;;;;;;23.62;18.25;;;;;;;12.16;63.28;99804.44;4409010;32;33932;-85
2021/04/19 02:08:31;;;;;;;23.00;18.52;;;;;;;11.99;63.80;99810.63;4421708;32;34799;-85
2021/04/19 02:11:12;;;;;;;23.15;17.27;;;;;;;11.99;63.66;99802.81;4409260;32;33541;-86
2021/04/19 02:14:06;;;;;;;21.85;17.42;;;;;;;12.01;63.50;99809.75;4410788;32;33339;-86
2021/04/19 02:16:48;;;;;;;24.08;18.23;;;;;;;11.95;63.87;99808.91;4410962;32;35584;-86
2021/04/19 02:19:35;;;;;;;21.12;17.08;;;;;;;12.04;63.50;99808.84;4411120;32;34484;-86
2021/04/19 02:22:22;;;;;;;23.00;17.70;;;;;;;12.19;62.83;99811.37;4411161;32;33906;-86
2021/04/19 02:25:17;;;;;;;20.60;16.83;;;;;;;12.05;63.37;99808.00;4424100;32;33813;-86
2021/04/19 02:27:47;;;;;;;21.90;16.98;;;;;;;12.00;63.47;99799.34;4423726;32;34719;-85
2021/04/19 02:30:17;;;;;;;24.75;18.85;;;;;;;12.01;63.48;99808.88;4398690;32;34488;-86
2021/04/19 02:32:50;;;;;;;23.50;17.90;;;;;;;11.97;63.54;99809.78;4411347;32;34130;-86
2021/04/19 02:35:22;;;;;;;20.77;16.70;;;;;;;12.01;63.55;99806.25;4411210;32;35213;-86
2021/04/19 02:37:51;;;;;;;23.15;18.50;;;;;;;11.98;63.58;99803.69;4398741;32;33850;-86
2021/04/19 02:40:20;;;;;;;23.98;18.08;;;;;;;12.02;63.50;99802.78;4411040;32;33367;-86
2021/04/19 02:42:50;;;;;;;23.80;18.67;;;;;;;12.09;63.06;99799.28;4398623;32;32719;-86
2021/04/19 02:45:21;;;;;;;25.52;18.77;;;;;;;12.10;63.12;99795.78;4411406;32;33799;-86
2021/04/19 02:47:51;;;;;;;23.27;17.67;;;;;;;12.04;63.38;99796.69;4410746;32;34974;-86
2021/04/19 02:50:23;;;;;;;23.58;19.08;;;;;;;12.02;63.35;99793.25;4411466;32;34262;-86
2021/04/19 02:52:51;;;;;;;22.73;18.15;;;;;;;12.08;63.18;99792.31;4411291;32;34168;-85
2021/04/19 02:55:22;;;;;;;23.05;19.20;;;;;;;11.90;63.81;99798.53;4410887;32;33843;-86
2021/04/19 02:57:53;;;;;;;23.55;19.62;;;;;;;12.09;63.20;99792.31;4398485;32;35123;-85
2021/04/19 03:00:24;;;;;;;25.35;19.30;;;;;;;12.03;63.46;99792.34;4398692;32;33535;-86
2021/04/19 03:02:53;;;;;;;22.13;18.12;;;;;;;12.15;63.13;99789.66;4398478;32;34219;-86
2021/04/19 03:05:21;;;;;;;24.40;19.98;;;;;;;12.10;63.33;99790.56;4411080;32;34430;-86
2021/04/19 03:07:58;;;;;;;24.70;18.52;;;;;;;12.04;63.56;99791.47;4411111;32;34051;-86
2021/04/19 03:10:30;;;;;;;23.42;17.62;;;;;;;12.11;63.28;99798.38;4398698;32;34212;-86
2021/04/19 03:12:58;;;;;;;21.73;18.77;;;;;;;12.11;63.29;99787.09;4411248;32;33584;-86
2021/04/19 03:15:31;;;;;;;22.15;18.70;;;;;;;12.06;63.33;99794.06;4398604;32;34196;-86
2021/04/19 03:18:02;;;;;;;24.20;18.52;;;;;;;12.12;62.89;99789.66;4411317;32;33489;-85
2021/04/19 03:20:46;;;;;;;24.33;19.48;;;;;;;12.02;63.33;99797.56;4398472;32;33409;-85
2021/04/19 03:23:14;;;;;;;19.95;16.83;;;;;;;12.05;62.91;99798.41;4398115;32;32863;-85
2021/04/19 03:25:43;;;;;;;22.87;17.85;;;;;;;12.07;62.87;99790.59;4410865;32;33680;-86
2021/04/19 03:28:12;;;;;;;20.25;16.20;;;;;;;12.00;63.04;99795.00;4410957;32;35217;-85
2021/04/19 03:30:39;;;;;;;21.30;17.17;;;;;;;12.03;62.83;99797.56;4410890;32;34435;-86
2021/04/19 03:33:09;;;;;;;22.23;17.12;;;;;;;12.04;62.62;99795.81;4411060;32;33010;-85
2021/04/19 03:35:37;;;;;;;23.05;17.95;;;;;;;12.02;62.95;99794.97;4410761;32;33934;-87
2021/04/19 03:38:06;;;;;;;20.92;16.55;;;;;;;11.94;62.95;99797.63;4410697;32;35447;-86
2021/04/19 03:40:34;;;;;;;21.92;17.60;;;;;;;12.17;62.37;99793.13;4410782;32;33973;-86
2021/04/19 03:43:09;;;;;;;22.00;17.23;;;;;;;12.02;63.02;99792.38;4411268;32;33463;-86
2021/04/19 03:45:38;;;;;;;23.62;18.83;;;;;;;11.99;63.01;99797.59;4398574;32;33331;-86
2021/04/19 03:48:13;;;;;;;24.60;18.65;;;;;;;11.90;63.35;99795.91;4411346;32;35269;-86
2021/04/19 03:50:42;;;;;;;;;;;;;;;11.89;63.46;99790.69;4410852;32;34288;-86
2021/04/19 03:53:10;;;;;;;24.92;18.50;;;;;;;12.01;63.11;99793.22;4411036;32;34062;-86
2021/04/19 03:55:38;;;;;;;26.52;19.87;;;;;;;11.92;63.32;99801.09;4410550;32;34519;-86
2021/04/19 03:58:07;;;;;;;23.95;19.33;;;;;;;11.87;63.53;99797.66;4398351;32;33899;-86
2021/04/19 04:00:35;;;;;;;24.67;19.70;;;;;;;11.81;63.75;99800.31;4423285;32;34119;-86
2021/04/19 04:03:05;;;;;;;27.58;19.87;;;;;;;11.89;63.29;99795.91;4410475;32;33361;-86
2021/04/19 04:05:35;;;;;;;25.35;18.52;;;;;;;11.92;63.17;99793.28;4411283;32;34517;-86
2021/04/19 04:08:06;;;;;;;26.08;20.90;;;;;;;11.98;62.96;99804.53;4410393;32;35054;-85
2021/04/19 04:10:33;;;;;;;24.00;17.30;;;;;;;12.02;62.88;99803.66;4410126;32;34229;-86
2021/04/19 04:13:01;;;;;;;22.23;16.95;;;;;;;12.01;62.68;99803.66;4410311;32;33418;-86
2021/04/19 04:15:29;;;;;;;21.30;18.27;;;;;;;11.92;62.93;99801.09;4410154;32;34113;-86
2021/04/19 04:17:58;;;;;;;20.67;15.50;;;;;;;11.78;63.43;99808.13;4397656;32;35405;-86
2021/04/19 04:20:26;;;;;;;19.60;15.52;;;;;;;11.85;63.15;99800.28;4397755;32;34648;-86
2021/04/19 04:22:54;;;;;;;19.35;15.73;;;;;;;11.88;62.82;99802.87;4410544;32;34104;-86
2021/04/19 04:25:25;;;;;;;22.55;16.50;;;;;;;11.94;62.65;99800.22;4410310;32;34234;-86
2021/04/19 04:27:52;;;;;;;20.85;16.17;;;;;;;12.13;62.25;99800.97;4398257;32;33957;-86
2021/04/19 04:30:21;;;;;;;22.55;17.05;;;;;;;12.03;62.41;99801.91;4422872;32;33567;-86
2021/04/19 04:32:49;;;;;;;21.27;17.12;;;;;;;12.03;62.53;99807.12;4398242;32;33005;-86
2021/04/19 04:35:16;;;;;;;19.67;16.12;;;;;;;11.93;62.76;99803.69;4409506;32;35083;-86
2021/04/19 04:37:45;;;;;;;23.45;17.70;;;;;;;11.97;62.66;99802.81;4410453;32;34413;-85
2021/04/19 04:40:12;;;;;;;20.40;16.70;;;;;;;12.07;62.32;99808.84;4410406;32;34062;-86
2021/04/19 04:42:41;;;;;;;22.17;17.10;;;;;;;11.79;63.13;99807.28;4410485;32;33350;-85
2021/04/19 04:45:09;;;;;;;20.27;16.55;;;;;;;11.88;62.77;99805.50;4410000;32;33391;-85
2021/04/19 04:47:36;;;;;;;20.30;16.80;;;;;;;11.80;63.07;99807.25;4410111;32;35825;-85
2021/04/19 04:50:17;;;;;;;17.12;15.05;;;;;;;11.84;63.04;99802.91;4409838;32;33676;-85
2021/04/19 04:52:55;;;;;;;17.17;14.18;;;;;;;11.83;62.62;99809.84;4410044;32;33127;-85
2021/04/19 04:55:23;;;;;;;17.23;14.45;;;;;;;11.77;62.74;99807.25;4409795;32;33637;-85
2021/04/19 04:57:51;;;;;;;19.05;15.10;;;;;;;11.89;62.47;99803.72;4409984;32;34933;-85
2021/04/19 05:00:21;;;;;;;19.73;16.20;;;;;;;11.91;62.60;99809.81;4409938;32;33997;-85
2021/04/19 05:02:49;;;;;;;21.00;15.73;;;;;;;11.87;62.77;99813.28;4397531;32;32960;-85
2021/04/19 05:05:17;;;;;;;19.87;15.52;;;;;;;11.91;62.42;99809.81;4409736;32;34174;-85
2021/04/19 05:07:45;;;;;;;21.12;16.87;;;;;;;11.92;62.18;99816.75;4409667;32;34159;-86
2021/04/19 05:10:13;;;;;;;20.73;16.42;;;;;;;11.83;62.60;99817.66;4409775;32;34526;-84
2021/04/19 05:12:41;;;;;;;20.10;16.05;;;;;;;11.86;62.54;99815.03;4409989;32;33381;-85
2021/04/19 05:15:12;;;;;;;18.98;16.62;;;;;;;11.84;62.53;99816.78;4409646;32;33667;-85
2021/04/19 05:17:43;;;;;;;20.98;16.33;;;;;;;12.01;62.13;99812.34;4397299;32;33897;-85
2021/04/19 05:20:15;;;;;;;19.90;15.02;;;;;;;11.91;62.13;99821.09;4409481;32;33995;-85
2021/04/19 05:22:43;;;;;;;19.95;15.93;;;;;;;11.95;61.83;99816.75;4409644;32;33144;-86
2021/04/19 05:25:11;;;;;;;17.50;14.80;;;;;;;12.03;61.53;99817.53;4408789;32;33153;-85
2021/04/19 05:27:39;;;;;;;14.85;11.35;;;;;;;12.02;61.68;99808.00;4409118;32;34347;-85
2021/04/19 05:30:07;;;;;;;16.62;14.80;;;;;;;12.08;63.04;99813.16;4408807;32;34112;-84
2021/04/19 05:32:34;;;;;;;19.02;15.20;;;;;;;12.21;61.30;99812.22;4408594;32;34506;-85
2021/04/19 05:35:02;;;;;;;16.75;14.63;;;;;;;12.24;60.95;99812.22;4408714;32;34491;-84
2021/04/19 05:37:30;;;;;;;18.55;15.07;;;;;;;12.24;60.84;99814.84;4396401;32;33921;-85
2021/04/19 05:39:57;;;;;;;18.42;15.80;;;;;;;12.22;60.84;99817.44;4408882;32;35409;-85
2021/04/19 05:42:25;;;;;;;18.12;15.45;;;;;;;12.31;60.78;99810.44;4409076;32;33572;-85
2021/04/19 05:44:52;;;;;;;21.27;16.30;;;;;;;12.36;61.02;99811.25;4396276;32;34749;-84
2021/04/19 05:47:20;;;;;;;17.83;15.35;;;;;;;12.24;61.01;99810.44;4397578;32;34185;-84
2021/04/19 05:49:48;;;;;;;18.95;15.57;;;;;;;12.36;60.89;99817.31;4410556;32;34780;-84
2021/04/19 05:52:19;;;;;;;17.27;15.02;;;;;;;12.40;60.90;99816.44;4398205;32;33179;-84
2021/04/19 05:54:46;;;;;;;19.55;16.98;;;;;;;12.34;61.06;99813.03;4385491;32;35732;-85
2021/04/19 05:57:52;;;;;;;19.73;17.33;;;;;;;12.24;61.48;99817.44;4410677;32;35743;-84
2021/04/19 06:00:27;;;;;;;17.58;15.23;;;;;;;12.22;61.88;99816.56;4348757;32;33614;-85
2021/04/19 06:02:57;;;;;;;16.30;14.43;;;;;;;12.22;61.65;99817.44;4379634;32;33488;-85
2021/04/19 06:05:32;;;;;;;19.40;14.32;;;;;;;12.36;61.29;99819.94;4410236;32;33989;-84
2021/04/19 06:08:18;;;;;;;14.35;12.50;;;;;;;12.32;61.38;99810.41;4423429;32;34896;-83
2021/04/19 06:10:50;;;;;;;15.57;12.27;;;;;;;12.54;61.87;99816.34;4411261;32;33625;-84
2021/04/19 06:13:20;;;;;;;12.73;11.30;;;;;;;12.56;60.93;99817.19;4411304;32;34637;-84
2021/04/19 06:15:50;;;;;;;12.00;10.38;;;;;;;12.51;60.73;99819.81;4410687;32;33670;-84
2021/04/19 06:18:22;;;;;;;13.25;11.82;;;;;;;12.53;60.79;99822.41;4410778;32;34376;-84
2021/04/19 06:20:54;;;;;;;15.32;11.82;;;;;;;12.52;60.96;99816.34;4410750;32;34753;-84
2021/04/19 06:23:25;;;;;;;14.30;12.00;;;;;;;12.48;61.33;99816.41;4410884;32;33506;-84
2021/04/19 06:25:53;;;;;;;13.65;11.73;;;;;;;12.41;61.57;99812.09;4385969;32;34420;-84
2021/04/19 06:28:23;;;;;;;14.73;12.00;;;;;;;12.37;61.68;99818.19;4411163;32;35205;-84
2021/04/19 06:31:12;;;;;;;15.07;13.38;;;;;;;12.40;61.58;99819.06;4400375;32;34952;-84
2021/04/19 06:33:40;;;;;;;15.23;13.62;;;;;;;12.49;61.43;99816.38;4385515;32;33027;-83
2021/04/19 06:36:07;;;;;;;15.07;12.40;;;;;;;12.55;61.09;99816.31;4410723;32;35155;-84
2021/04/19 06:38:34;;;;;;;14.55;12.88;;;;;;;12.51;61.24;99814.62;4410666;32;34895;-84
2021/04/19 06:41:02;;;;;;;17.52;13.95;;;;;;;12.56;61.35;99818.06;4398242;32;34420;-84
2021/04/19 06:43:30;;;;;;;15.95;14.07;;;;;;;12.68;60.90;99819.69;4398207;32;32892;-90
2021/04/19 06:45:57;;;;;;;14.82;10.88;;;;;;;12.67;61.19;99816.22;4410518;32;33335;-83
2021/04/19 06:48:25;;;;;;;18.15;12.35;;;;;;;12.79;60.57;99815.25;4398555;32;34541;-84
2021/04/19 06:50:53;;;;;;;66.65;16.70;;;;;;;12.71;61.45;99828.38;4392880;32;33912;-84
2021/04/19 06:53:21;;;;;;;21.85;10.52;;;;;;;12.77;61.04;99817.87;4397525;32;34716;-84
2021/04/19 06:55:48;;;;;;;12.07;9.63;;;;;;;12.85;60.14;99817.81;4410373;32;33374;-84
2021/04/19 06:58:15;;;;;;;13.13;10.85;;;;;;;12.89;60.12;99817.75;4409818;32;35903;-84
2021/04/19 07:00:43;;;;;;;19.33;12.25;;;;;;;12.98;60.14;99823.78;4410343;32;34407;-83
2021/04/19 07:03:11;;;;;;;13.20;9.43;;;;;;;13.01;60.64;99823.75;4411085;32;33380;-84
2021/04/19 07:05:38;;;;;;;11.77;9.88;;;;;;;13.08;59.97;99815.00;4422796;32;35100;-83
2021/04/19 07:08:15;;;;;;;11.73;9.48;;;;;;;13.18;58.86;99820.13;4388207;32;35101;-84
2021/04/19 07:11:09;;;;;;;15.75;10.55;;;;;;;13.16;59.47;99818.41;4397399;32;33703;-85
2021/04/19 07:13:37;;;;;;;9.93;8.65;;;;;;;12.90;59.92;99814.28;4394991;32;33777;-83
2021/04/19 07:16:05;;;;;;;11.30;8.10;;;;;;;12.99;60.15;99808.09;4395553;32;34521;-84
2021/04/19 07:18:33;;;;;;;12.30;9.18;;;;;;;12.79;60.62;99804.78;4383758;32;35224;-84
2021/04/19 07:21:02;;;;;;;11.82;9.80;;;;;;;12.91;60.52;99805.56;4395789;32;34011;-84
2021/04/19 07:23:29;;;;;;;12.95;10.13;;;;;;;12.98;60.68;99805.50;4398205;32;33209;-84
2021/04/19 07:25:56;;;;;;;11.18;8.77;;;;;;;13.16;60.49;99805.34;4408243;32;32607;-84
2021/04/19 07:28:27;;;;;;;12.20;8.45;;;;;;;13.04;60.45;99810.66;4404681;32;35218;-84
2021/04/19 07:30:59;;;;;;;10.50;8.43;;;;;;;13.15;60.21;99811.44;4422743;32;34645;-84
2021/04/19 07:33:28;;;;;;;10.20;8.27;;;;;;;13.24;59.40;99808.75;4409817;32;33678;-85
2021/04/19 07:35:55;;;;;;;9.63;7.28;;;;;;;13.20;59.46;99812.25;4409743;32;34002;-84
2021/04/19 07:38:38;;;;;;;8.88;7.60;;;;;;;13.08;60.14;99807.16;4391479;32;34681;-84
2021/04/19 07:41:06;;;;;;;8.32;7.53;;;;;;;13.02;59.97;99807.22;4379424;32;33591;-84
2021/04/19 07:43:38;;;;;;;7.68;6.15;;;;;;;13.21;59.34;99801.81;4391716;32;34214;-84
2021/04/19 07:46:08;;;;;;;6.65;5.53;;;;;;;13.35;58.49;99799.03;4379363;32;34932;-84
2021/04/19 07:48:41;;;;;;;6.82;5.78;;;;;;;13.39;58.06;99792.91;4398381;32;34470;-87
2021/04/19 07:51:29;;;;;;;7.07;6.20;;;;;;;13.17;59.27;99796.66;4392430;32;34584;-87
2021/04/19 07:54:23;;;;;;;8.20;6.32;;;;;;;13.16;59.44;99800.12;4395188;32;32691;-88
2021/04/19 07:56:54;;;;;;;6.57;5.95;;;;;;;13.31;59.15;99795.59;4389399;32;34131;-87
2021/04/19 07:59:30;;;;;;;8.55;7.47;;;;;;;13.35;59.30;99802.53;4381198;32;33789;-88
2021/04/19 08:02:04;;;;;;;9.60;7.18;;;;;;;13.27;58.85;99798.25;4410119;32;33689;-87
2021/04/19 08:04:33;;;;;;;7.35;6.55;;;;;;;13.52;58.60;99795.37;4397796;32;32722;-87
2021/04/19 08:07:01;;;;;;;7.55;6.50;;;;;;;13.43;58.48;99790.22;4410265;32;35225;-87
2021/04/19 08:09:32;;;;;;;7.47;6.53;;;;;;;13.30;59.18;99788.66;4394345;32;34807;-86
2021/04/19 08:12:07;;;;;;;7.57;5.70;;;;;;;13.38;59.31;99785.97;4394792;32;33450;-86
2021/04/19 08:14:50;;;;;;;6.57;5.62;;;;;;;13.51;57.23;99788.41;4381814;32;33423;-86
2021/04/19 08:17:18;;;;;;;7.78;6.07;;;;;;;13.60;56.90;99790.03;4394436;32;33844;-86
2021/04/19 08:19:45;;;;;;;6.55;5.85;;;;;;;13.67;56.74;99783.00;4354653;32;35386;-87
2021/04/19 08:22:17;;;;;;;6.75;5.70;;;;;;;13.75;57.34;99794.19;4393085;32;33421;-88
2021/04/19 08:24:47;;;;;;;8.07;5.75;;;;;;;13.80;57.71;99787.16;4390155;32;32833;-88
2021/04/19 08:27:23;;;;;;;6.87;5.93;;;;;;;13.70;57.53;99796.00;4408993;32;34347;-87
2021/04/19 08:29:51;;;;;;;7.95;6.57;;;;;;;13.87;56.17;99787.06;4409496;32;34095;-88
2021/04/19 08:32:22;;;;;;;8.15;6.68;;;;;;;13.65;57.65;99793.44;4410214;32;33804;-87
2021/04/19 08:34:51;;;;;;;7.25;6.30;;;;;;;13.97;57.24;99780.81;4404909;32;116908;-88
2021/04/19 08:37:21;;;;;;;6.50;4.82;;;;;;;13.89;58.62;99782.66;4397701;32;33526;-88
2021/04/19 08:39:49;;;;;;;6.55;5.28;;;;;;;13.94;56.65;99786.09;4409904;32;33850;-88
2021/04/19 08:42:21;;;;;;;6.60;4.80;;;;;;;13.96;56.50;99780.81;4410607;32;33842;-87
2021/04/19 08:45:08;;;;;;;5.15;4.55;;;;;;;13.82;55.70;99794.09;4404884;32;32977;-90
2021/04/19 08:47:38;;;;;;;6.03;5.00;;;;;;;14.14;55.58;99780.59;4394547;32;33050;-88
2021/04/19 08:50:08;;;;;;;10.27;5.05;;;;;;;14.16;56.28;99786.66;4394486;32;35027;-88
2021/04/19 08:52:36;;;;;;;5.85;4.95;;;;;;;14.11;56.40;99786.72;4398974;32;33523;-87
2021/04/19 08:55:13;;;;;;;6.40;4.97;;;;;;;14.18;56.30;99780.50;4380899;32;34171;-88
2021/04/19 08:58:03;;;;;;;5.55;5.03;;;;;;;14.23;56.09;99783.06;4410744;32;34383;-88
2021/04/19 09:00:42;;;;;;;5.53;4.28;;;;;;;14.49;56.26;99786.16;4411534;32;34389;-89
2021/04/19 09:03:11;;;;;;;6.45;5.07;;;;;;;14.36;56.71;99787.22;4409500;32;35511;-88
2021/04/19 09:05:38;;;;;;;5.00;4.50;;;;;;;14.41;56.42;99781.91;4400341;32;32892;-88
2021/04/19 09:08:08;;;;;;;6.82;5.12;;;;;;;14.31;56.35;99783.81;4384728;32;33244;-87
2021/04/19 09:11:06;;;;;;;6.25;4.75;;;;;;;14.17;56.13;99784.00;4396807;32;33852;-87
2021/04/19 09:13:35;;;;;;;6.30;4.45;;;;;;;14.31;55.83;99788.22;4396719;32;34422;-87
2021/04/19 09:16:16;;;;;;;5.78;4.72;;;;;;;14.14;56.23;99780.59;4409455;32;34043;-88
2021/04/19 09:18:53;;;;;;;6.00;4.62;;;;;;;14.11;55.49;99781.50;4409044;32;33327;-87
2021/04/19 09:21:41;;;;;;;6.22;5.07;;;;;;;14.33;54.99;99783.81;4408958;32;34168;-87
2021/04/19 09:24:19;;;;;;;6.97;5.62;;;;;;;14.15;56.82;99777.94;4386524;32;33405;-87
2021/04/19 09:26:51;;;;;;;6.35;5.00;;;;;;;14.20;55.91;99780.47;4410721;32;33633;-88
2021/04/19 09:29:24;;;;;;;5.90;5.22;;;;;;;13.99;56.30;99784.28;4410604;32;33310;-87
2021/04/19 09:31:55;;;;;;;6.30;5.35;;;;;;;13.85;56.50;99783.59;4410811;32;36567;-88
2021/04/19 09:34:52;;;;;;;7.07;5.15;;;;;;;14.05;55.85;99786.78;4411316;32;33976;-88
2021/04/19 09:37:51;;;;;;;8.18;5.37;;;;;;;13.86;55.79;99790.53;4390008;32;34106;-88
2021/04/19 09:40:27;;;;;;;13.75;10.05;;;;;;;14.03;55.94;99787.69;4422717;32;34793;-88
2021/04/19 09:43:34;;;;;;;8.50;6.05;;;;;;;13.81;56.40;99791.50;4411157;32;35175;-87
2021/04/19 09:46:17;;;;;;;6.00;4.90;;;;;;;13.71;57.07;99792.50;4424238;32;33984;-88
2021/04/19 09:48:58;;;;;;;5.45;4.30;;;;;;;13.87;56.42;99789.69;4410791;32;32879;-88
2021/04/19 09:51:40;;;;;;;7.23;4.93;;;;;;;13.92;55.97;99787.00;4398123;32;33137;-88
2021/04/19 09:54:11;;;;;;;7.62;5.72;;;;;;;14.10;56.26;99784.97;4398359;32;33946;-87
2021/04/19 09:56:40;;;;;;;5.53;5.00;;;;;;;14.06;57.42;99783.31;4423352;32;35304;-88
2021/04/19 09:59:14;;;;;;;7.82;5.10;;;;;;;14.18;57.02;99777.91;4403022;32;34118;-88
2021/04/19 10:01:45;;;;;;;5.12;4.55;;;;;;;14.10;57.17;99778.88;4390646;32;33376;-88
2021/04/19 10:04:13;;;;;;;5.28;4.45;;;;;;;13.96;57.09;99776.47;4395952;32;34524;-88
2021/04/19 10:06:50;;;;;;;6.20;5.10;;;;;;;14.24;56.04;99775.16;4395931;32;34258;-87
2021/04/19 10:09:23;;;;;;;6.40;5.25;;;;;;;14.42;56.17;99776.69;4382774;32;32965;-89
2021/04/19 10:11:58;;;;;;;4.75;4.25;;;;;;;14.46;56.09;99767.88;4396921;32;35106;-88
2021/04/19 10:14:27;;;;;;;7.97;5.12;;;;;;;14.62;54.18;99766.72;4383326;32;33957;-87
2021/04/19 10:16:54;;;;;;;5.43;4.85;;;;;;;14.75;54.25;99765.66;4382822;32;33788;-87
2021/04/19 10:19:27;;;;;;;7.62;4.82;;;;;;;14.67;55.08;99767.53;4382789;32;33651;-87
2021/04/19 10:22:07;;;;;;;6.55;5.50;;;;;;;14.65;54.57;99763.19;4383697;32;34300;-87
2021/04/19 10:24:37;;;;;;;6.12;5.22;;;;;;;14.71;54.06;99769.19;4383901;32;33742;-89
2021/04/19 10:27:39;;;;;;;;;;;;;;;;;;;;;
2021/04/19 10:30:31;;;;;;;6.45;5.28;;;;;;;14.32;53.94;99771.59;4395975;32;33321;-88
2021/04/19 10:33:36;;;;;;;13.62;9.68;;;;;;;13.83;56.50;99771.44;4395216;32;33227;-88
2021/04/19 10:36:10;;;;;;;9.35;8.35;;;;;;;13.89;57.27;99766.97;4402188;32;34024;-88
2021/04/19 10:39:20;;;;;;;8.30;6.68;;;;;;;13.69;57.52;99769.03;4398276;32;33938;-89
2021/04/19 10:42:06;;;;;;;6.95;6.10;;;;;;;13.65;57.49;99769.06;4398951;32;33926;-88
2021/04/19 10:44:49;;;;;;;9.18;6.37;;;;;;;13.52;57.72;99761.41;4399584;32;33778;-89
2021/04/19 10:47:28;;;;;;;6.03;5.43;;;;;;;13.56;58.26;99770.91;4395591;32;35186;-89
2021/04/19 10:49:57;;;;;;;7.45;5.80;;;;;;;13.68;57.31;99756.81;4383029;32;33732;-89
2021/04/19 10:52:32;;;;;;;7.97;6.45;;;;;;;13.85;57.58;99767.06;4395970;32;32985;-89
2021/04/19 10:55:09;;;;;;;9.35;5.87;;;;;;;13.72;57.96;99760.25;4395903;32;33324;-90
2021/04/19 10:57:45;;;;;;;7.40;5.47;;;;;;;13.31;58.34;99759.03;4396379;32;33905;-89
2021/04/19 11:00:13;;;;;;;5.57;5.03;;;;;;;13.78;57.66;99752.34;4384099;32;33925;-88
2021/04/19 11:02:42;;;;;;;8.15;6.12;;;;;;;13.63;57.87;99752.53;4383267;32;33222;-89
2021/04/19 11:05:50;;;;;;;7.82;5.55;;;;;;;13.82;57.68;99744.44;4368639;32;34740;-88
2021/04/19 11:08:52;;;;;;;6.00;5.40;;;;;;;13.91;57.89;99746.03;4364571;32;33853;-89
2021/04/19 11:11:34;;;;;;;6.12;5.25;;;;;;;14.00;56.34;99749.37;4365393;32;33541;-89
2021/04/19 11:14:37;;;;;;;13.75;5.15;;;;;;;13.83;56.29;99751.41;4378445;32;32680;-89
2021/04/19 11:17:30;;;;;;;6.00;5.40;;;;;;;13.59;56.07;99754.34;4382042;32;33758;-89
2021/04/19 11:20:41;;;;;;;5.15;4.35;;;;;;;13.80;56.08;99754.03;4371639;32;34844;-89
2021/04/19 11:23:29;;;;;;;4.87;4.37;;;;;;;13.82;56.05;99751.41;4377211;32;33422;-89
2021/04/19 11:26:25;;;;;;;5.93;4.70;;;;;;;13.20;57.12;99755.69;4390758;32;33531;-89
2021/04/19 11:29:42;;;;;;;5.87;4.75;;;;;;;13.24;58.22;99757.37;4413573;32;35481;-89
2021/04/19 11:36:01;;;;;;;7.75;5.75;;;;;;;13.78;55.67;99747.97;4407289;32;33217;-90
2021/04/19 11:38:41;;;;;;;6.12;5.07;;;;;;;13.99;54.81;99750.28;4371765;32;33768;-89
2021/04/19 11:41:13;;;;;;;9.18;7.45;;;;;;;14.01;54.10;99740.66;4380803;32;33792;-88
2021/04/19 11:43:47;;;;;;;13.45;6.62;;;;;;;14.00;54.46;99740.69;4368191;32;34024;-88
2021/04/19 11:46:20;;;;;;;7.18;6.07;;;;;;;14.06;54.91;99735.34;4384481;32;34328;-88
2021/04/19 11:48:51;;;;;;;10.37;6.03;;;;;;;13.86;54.65;99735.66;4397540;32;32482;-88
2021/04/19 11:51:28;;;;;;;13.48;9.07;;;;;;;14.12;54.67;99738.75;4423779;32;35078;-88
2021/04/19 11:54:00;;;;;;;7.03;5.60;;;;;;;14.16;53.63;99742.19;4413618;32;33563;-89
2021/04/19 11:56:37;;;;;;;8.52;6.70;;;;;;;13.93;54.37;99742.50;4425533;32;33742;-88